createdAt,value
2023-03-21T00:00:57.185Z,98464.25
2023-03-21T00:02:18.569Z,98469.24
2023-03-21T00:03:52.830Z,98466.29
2023-03-21T00:05:22.156Z,98462.38
2023-03-21T00:06:55.758Z,98459.85
2023-03-21T00:08:19.418Z,98458.89
2023-03-21T00:10:15.413Z,98456.13
2023-03-21T00:11:41.368Z,98457.32
2023-03-21T00:13:15.017Z,98457.61
2023-03-21T00:14:38.767Z,98457.00
2023-03-21T00:16:04.988Z,98455.48
2023-03-21T00:17:44.779Z,98453.58
2023-03-21T00:19:09.675Z,98459.48
2023-03-21T00:20:31.435Z,98452.55
2023-03-21T00:22:07.981Z,98455.93
2023-03-21T00:23:42.060Z,98445.20
2023-03-21T00:25:03.597Z,98452.23
2023-03-21T00:26:25.369Z,98448.79
2023-03-21T00:28:01.450Z,98448.52
2023-03-21T00:29:40.454Z,98444.55
2023-03-21T00:31:12.518Z,98445.21
2023-03-21T00:32:39.746Z,98440.17
2023-03-21T00:34:04.414Z,98446.29
2023-03-21T00:35:58.015Z,98445.38
2023-03-21T00:37:16.679Z,98440.38
2023-03-21T00:38:43.328Z,98443.16
2023-03-21T00:40:23.093Z,98440.31
2023-03-21T00:42:01.731Z,98440.77
2023-03-21T00:43:23.570Z,98442.41
2023-03-21T00:45:09.957Z,98429.21
2023-03-21T00:47:06.541Z,98445.15
2023-03-21T00:48:31.738Z,98442.74
2023-03-21T00:50:01.550Z,98434.11
2023-03-21T00:51:26.751Z,98444.44
2023-03-21T00:52:51.377Z,98438.25
2023-03-21T00:54:20.465Z,98444.95
2023-03-21T00:55:44.894Z,98444.48
2023-03-21T00:57:09.350Z,98440.64
2023-03-21T00:58:45.038Z,98445.40
2023-03-21T01:00:30.162Z,98443.92
2023-03-21T01:02:19.094Z,98440.06
2023-03-21T01:04:12.737Z,98438.70
2023-03-21T01:05:53.232Z,98438.02
2023-03-21T01:07:17.490Z,98436.79
2023-03-21T01:08:51.824Z,98438.43
2023-03-21T01:10:17.382Z,98438.44
2023-03-21T01:11:42.228Z,98437.61
2023-03-21T01:13:22.733Z,98438.95
2023-03-21T01:15:03.394Z,98439.11
2023-03-21T01:16:25.427Z,98439.45
2023-03-21T01:17:59.638Z,98437.42
2023-03-21T01:19:31.006Z,98442.94
2023-03-21T01:20:59.667Z,98440.70
2023-03-21T01:22:21.249Z,98442.02
2023-03-21T01:24:11.598Z,98443.02
2023-03-21T01:25:38.093Z,98442.14
2023-03-21T01:27:00.538Z,98438.31
2023-03-21T01:28:32.587Z,98444.37
2023-03-21T01:30:06.222Z,98441.63
2023-03-21T01:31:32.597Z,98440.59
2023-03-21T01:32:56.911Z,98439.45
2023-03-21T01:34:18.304Z,98439.28
2023-03-21T01:35:49.168Z,98440.77
2023-03-21T01:37:29.619Z,98429.84
2023-03-21T01:38:55.970Z,98432.83
2023-03-21T01:40:20.174Z,98427.80
2023-03-21T01:41:45.081Z,98428.70
2023-03-21T01:43:13.248Z,98428.92
2023-03-21T01:44:54.531Z,98429.76
2023-03-21T01:46:21.589Z,98424.83
2023-03-21T01:48:01.114Z,98418.97
2023-03-21T01:49:36.035Z,98418.97
2023-03-21T01:52:01.038Z,98408.85
2023-03-21T01:53:37.777Z,98412.20
2023-03-21T01:55:14.317Z,98407.55
2023-03-21T01:56:58.931Z,98406.30
2023-03-21T01:58:23.029Z,98407.62
2023-03-21T02:00:32.133Z,98405.88
2023-03-21T02:02:01.635Z,98408.66
2023-03-21T02:03:58.515Z,98405.13
2023-03-21T02:05:58.483Z,98407.98
2023-03-21T02:07:47.035Z,98402.35
2023-03-21T02:09:23.108Z,98400.83
2023-03-21T02:10:52.596Z,98402.22
2023-03-21T02:12:48.980Z,98407.38
2023-03-21T02:14:29.268Z,98408.60
2023-03-21T02:16:05.652Z,98403.65
2023-03-21T02:17:31.503Z,98402.73
2023-03-21T02:19:13.980Z,98392.35
2023-03-21T02:20:59.641Z,98400.89
2023-03-21T02:22:41.050Z,98402.08
2023-03-21T02:24:16.789Z,98403.81
2023-03-21T02:26:02.420Z,98400.40
2023-03-21T02:27:47.938Z,98400.87
2023-03-21T02:29:11.974Z,98400.61
2023-03-21T02:30:51.968Z,98399.50
2023-03-21T02:32:25.385Z,98398.69
2023-03-21T02:34:08.545Z,98401.77
2023-03-21T02:35:44.123Z,98395.83
2023-03-21T02:37:13.106Z,98394.27
2023-03-21T02:38:41.977Z,98391.72
2023-03-21T02:40:27.236Z,98395.34
2023-03-21T02:42:02.040Z,98395.36
2023-03-21T02:43:52.770Z,98393.52
2023-03-21T02:45:25.822Z,98390.05
2023-03-21T02:47:06.504Z,98398.24
2023-03-21T02:48:44.368Z,98398.94
2023-03-21T02:50:30.825Z,98399.82
2023-03-21T02:52:14.447Z,98394.38
2023-03-21T02:54:28.131Z,98396.12
2023-03-21T02:55:57.587Z,98399.83
2023-03-21T02:57:43.948Z,98402.15
2023-03-21T02:59:25.196Z,98404.75
2023-03-21T03:01:01.360Z,98406.13
2023-03-21T03:03:08.235Z,98406.23
2023-03-21T03:04:43.051Z,98408.55
2023-03-21T03:06:07.845Z,98402.80
2023-03-21T03:07:53.912Z,98409.25
2023-03-21T03:09:16.612Z,98409.45
2023-03-21T03:11:02.394Z,98405.63
2023-03-21T03:12:44.787Z,98408.89
2023-03-21T03:16:23.678Z,98405.02
2023-03-21T03:17:47.838Z,98408.84
2023-03-21T03:19:21.427Z,98407.08
2023-03-21T03:20:55.276Z,98402.48
2023-03-21T03:22:28.421Z,98408.66
2023-03-21T03:24:13.816Z,98408.11
2023-03-21T03:25:42.582Z,98406.54
2023-03-21T03:27:19.776Z,98407.36
2023-03-21T03:29:05.406Z,98403.09
2023-03-21T03:30:40.953Z,98405.40
2023-03-21T03:32:07.047Z,98409.37
2023-03-21T03:33:42.032Z,98412.92
2023-03-21T03:35:13.559Z,98413.91
2023-03-21T03:36:50.630Z,98412.92
2023-03-21T03:38:24.376Z,98408.27
2023-03-21T03:40:07.952Z,98404.53
2023-03-21T03:42:06.019Z,98407.33
2023-03-21T03:43:38.208Z,98401.54
2023-03-21T03:45:20.347Z,98391.15
2023-03-21T03:47:05.978Z,98403.41
2023-03-21T03:48:51.211Z,98407.02
2023-03-21T03:50:36.619Z,98402.89
2023-03-21T03:52:17.980Z,98399.19
2023-03-21T03:53:44.575Z,98396.86
2023-03-21T03:55:29.633Z,98394.63
2023-03-21T03:57:17.728Z,98392.98
2023-03-21T03:58:51.181Z,98390.75
2023-03-21T04:00:27.957Z,98396.91
2023-03-21T04:02:09.446Z,98396.38
2023-03-21T04:04:06.967Z,98398.58
2023-03-21T04:05:48.912Z,98394.72
2023-03-21T04:07:22.405Z,98392.99
2023-03-21T04:09:23.350Z,98390.20
2023-03-21T04:11:13.495Z,98393.23
2023-03-21T04:13:03.888Z,98398.92
2023-03-21T04:14:48.921Z,98393.70
2023-03-21T04:16:20.176Z,98386.61
2023-03-21T04:18:07.806Z,98388.88
2023-03-21T04:20:05.472Z,98399.16
2023-03-21T04:21:45.424Z,98399.27
2023-03-21T04:23:33.366Z,98406.07
2023-03-21T04:25:30.777Z,98403.48
2023-03-21T04:27:17.916Z,98401.19
2023-03-21T04:29:05.667Z,98404.95
2023-03-21T04:31:25.451Z,98405.42
2023-03-21T04:33:08.993Z,98409.92
2023-03-21T04:34:45.528Z,98409.90
2023-03-21T04:36:31.174Z,98409.04
2023-03-21T04:38:16.046Z,98403.73
2023-03-21T04:39:54.470Z,98408.00
2023-03-21T04:41:27.438Z,98404.70
2023-03-21T04:43:16.698Z,98406.93
2023-03-21T04:44:51.737Z,98409.92
2023-03-21T04:46:46.089Z,98405.91
2023-03-21T04:48:31.213Z,98408.67
2023-03-21T04:50:08.200Z,98408.78
2023-03-21T04:51:59.830Z,98411.14
2023-03-21T04:53:44.856Z,98409.97
2023-03-21T04:55:10.074Z,98410.64
2023-03-21T04:56:48.822Z,98407.02
2023-03-21T04:58:20.177Z,98407.30
2023-03-21T04:59:56.321Z,98402.36
2023-03-21T05:01:32.647Z,98410.06
2023-03-21T05:03:01.408Z,98403.98
2023-03-21T05:04:46.755Z,98406.46
2023-03-21T05:06:22.438Z,98406.73
2023-03-21T05:08:06.507Z,98410.15
2023-03-21T05:09:55.579Z,98410.92
2023-03-21T05:11:48.567Z,98410.89
2023-03-21T05:13:24.266Z,98408.39
2023-03-21T05:14:46.447Z,98411.41
2023-03-21T05:16:31.220Z,98413.35
2023-03-21T05:18:11.433Z,98413.98
2023-03-21T05:19:48.480Z,98417.55
2023-03-21T05:21:29.246Z,98419.20
2023-03-21T05:23:14.992Z,98417.49
2023-03-21T05:24:39.201Z,98422.59
2023-03-21T05:26:25.187Z,98421.91
2023-03-21T05:28:05.862Z,98421.15
2023-03-21T05:29:39.576Z,98424.84
2023-03-21T05:31:20.832Z,98414.71
2023-03-21T05:32:59.110Z,98427.16
2023-03-21T05:34:36.271Z,98428.45
2023-03-21T05:36:11.869Z,98425.73
2023-03-21T05:37:50.969Z,98427.11
2023-03-21T05:39:24.269Z,98427.67
2023-03-21T05:41:17.224Z,98429.12
2023-03-21T05:42:52.260Z,98422.43
2023-03-21T05:44:16.705Z,98430.36
2023-03-21T05:45:55.576Z,98428.96
2023-03-21T05:47:36.309Z,98428.09
2023-03-21T05:49:06.332Z,98429.60
2023-03-21T05:50:51.550Z,98430.77
2023-03-21T05:52:28.522Z,98435.42
2023-03-21T05:54:05.250Z,98434.64
2023-03-21T05:55:50.338Z,98435.02
2023-03-21T05:57:50.350Z,98437.61
2023-03-21T05:59:40.705Z,98441.11
2023-03-21T06:01:25.466Z,98439.17
2023-03-21T06:03:23.919Z,98442.04
2023-03-21T06:05:16.441Z,98442.57
2023-03-21T06:07:06.022Z,98438.27
2023-03-21T06:08:59.469Z,98447.62
2023-03-21T06:10:44.509Z,98450.20
2023-03-21T06:12:09.699Z,98448.28
2023-03-21T06:14:00.813Z,98450.41
2023-03-21T06:15:54.166Z,98450.66
2023-03-21T06:17:37.057Z,98452.67
2023-03-21T06:19:13.988Z,98452.37
2023-03-21T06:21:10.604Z,98452.23
2023-03-21T06:22:57.763Z,98453.71
2023-03-21T06:24:35.541Z,98454.04
2023-03-21T06:26:22.764Z,98453.88
2023-03-21T06:27:59.469Z,98453.25
2023-03-21T06:29:33.369Z,98455.89
2023-03-21T06:31:09.208Z,98454.77
2023-03-21T06:32:51.002Z,98459.23
2023-03-21T06:34:38.392Z,98463.66
2023-03-21T06:36:15.087Z,98465.52
2023-03-21T06:37:55.889Z,98466.20
2023-03-21T06:39:46.052Z,98464.49
2023-03-21T06:41:31.516Z,98468.46
2023-03-21T06:43:12.824Z,98467.27
2023-03-21T06:45:06.513Z,98466.81
2023-03-21T06:46:51.496Z,98473.20
2023-03-21T06:48:45.617Z,98461.27
2023-03-21T06:50:21.469Z,98469.23
2023-03-21T06:51:48.481Z,98472.04
2023-03-21T06:53:27.741Z,98475.56
2023-03-21T06:55:31.234Z,98476.52
2023-03-21T06:57:17.253Z,98473.96
2023-03-21T06:58:49.674Z,98481.54
2023-03-21T07:01:16.133Z,98478.98
2023-03-21T07:02:58.355Z,98475.52
2023-03-21T07:04:34.805Z,98477.57
2023-03-21T07:06:19.879Z,98474.48
2023-03-21T07:07:49.841Z,98478.30
2023-03-21T07:09:30.073Z,98478.80
2023-03-21T07:11:09.594Z,98479.46
2023-03-21T07:13:05.003Z,98481.88
2023-03-21T07:14:34.534Z,98484.54
2023-03-21T07:16:08.278Z,98486.64
2023-03-21T07:17:42.036Z,98482.17
2023-03-21T07:19:17.716Z,98485.34
2023-03-21T07:21:10.940Z,98488.44
2023-03-21T07:22:56.083Z,98488.48
2023-03-21T07:24:24.971Z,98490.94
2023-03-21T07:26:01.029Z,98488.20
2023-03-21T07:27:39.109Z,98490.75
2023-03-21T07:29:25.471Z,98489.02
2023-03-21T07:31:01.308Z,98490.45
2023-03-21T07:32:46.288Z,98491.23
2023-03-21T07:34:19.845Z,98491.60
2023-03-21T07:35:56.681Z,98496.48
2023-03-21T07:37:27.383Z,98496.20
2023-03-21T07:39:12.958Z,98499.15
2023-03-21T07:40:54.938Z,98495.33
2023-03-21T07:44:03.696Z,98494.53
2023-03-21T07:45:50.861Z,98497.77
2023-03-21T07:47:33.053Z,98501.09
2023-03-21T07:48:55.305Z,98499.14
2023-03-21T07:50:30.965Z,98500.21
2023-03-21T07:52:16.174Z,98498.73
2023-03-21T07:53:57.972Z,98492.39
2023-03-21T07:55:42.810Z,98496.39
2023-03-21T07:57:16.300Z,98498.80
2023-03-21T07:58:38.167Z,98503.16
2023-03-21T08:00:22.962Z,98505.14
2023-03-21T08:01:56.952Z,98504.38
2023-03-21T08:03:37.298Z,98507.63
2023-03-21T08:05:11.560Z,98508.53
2023-03-21T08:06:56.720Z,98508.31
2023-03-21T08:08:39.382Z,98512.73
2023-03-21T08:10:12.959Z,98513.48
2023-03-21T08:11:44.367Z,98508.20
2023-03-21T08:13:29.089Z,98512.27
2023-03-21T08:15:00.989Z,98510.42
2023-03-21T08:16:41.407Z,98516.91
2023-03-21T08:18:17.259Z,98507.81
2023-03-21T08:19:51.002Z,98515.13
2023-03-21T08:21:44.507Z,98515.94
2023-03-21T08:23:29.260Z,98516.20
2023-03-21T08:25:15.813Z,98517.86
2023-03-21T08:26:52.603Z,98517.32
2023-03-21T08:28:25.645Z,98518.92
2023-03-21T08:29:59.446Z,98519.19
2023-03-21T08:31:44.434Z,98522.29
2023-03-21T08:33:19.730Z,98522.58
2023-03-21T08:35:05.113Z,98523.77
2023-03-21T08:36:40.318Z,98523.22
2023-03-21T08:38:16.074Z,98527.14
2023-03-21T08:39:40.326Z,98528.05
2023-03-21T08:41:15.969Z,98531.50
2023-03-21T08:42:58.123Z,98531.16
2023-03-21T08:44:51.015Z,98534.20
2023-03-21T08:46:39.266Z,98537.02
2023-03-21T08:48:24.782Z,98535.19
2023-03-21T08:50:11.834Z,98530.67
2023-03-21T08:51:37.606Z,98535.37
2023-03-21T08:53:13.836Z,98531.77
2023-03-21T08:54:49.516Z,98532.31
2023-03-21T08:56:22.667Z,98537.05
2023-03-21T08:58:16.762Z,98539.40
2023-03-21T08:59:40.884Z,98538.80
2023-03-21T09:01:14.360Z,98543.85
2023-03-21T09:03:01.359Z,98541.07
2023-03-21T09:04:34.836Z,98542.45
2023-03-21T09:06:08.851Z,98546.95
2023-03-21T09:07:46.500Z,98545.84
2023-03-21T09:09:20.047Z,98545.82
2023-03-21T09:11:14.087Z,98544.73
2023-03-21T09:12:47.618Z,98547.81
2023-03-21T09:14:29.177Z,98548.25
2023-03-21T09:16:05.640Z,98546.90
2023-03-21T09:17:59.380Z,98548.02
2023-03-21T09:19:49.861Z,98550.71
2023-03-21T09:21:31.930Z,98552.41
2023-03-21T09:23:17.273Z,98555.61
2023-03-21T09:25:05.509Z,98555.95
2023-03-21T09:26:41.301Z,98559.09
2023-03-21T09:28:16.450Z,98557.43
2023-03-21T09:30:06.036Z,98562.77
2023-03-21T09:31:51.731Z,98563.48
2023-03-21T09:33:32.841Z,98563.14
2023-03-21T09:34:56.105Z,98563.80
2023-03-21T09:36:49.309Z,98564.33
2023-03-21T09:38:34.857Z,98560.16
2023-03-21T09:40:20.192Z,98562.07
2023-03-21T09:42:15.189Z,98560.45
2023-03-21T09:43:50.672Z,98567.23
2023-03-21T09:45:40.659Z,98566.08
2023-03-21T09:47:21.388Z,98566.17
2023-03-21T09:48:57.416Z,98568.15
2023-03-21T09:50:51.314Z,98570.02
2023-03-21T09:52:28.173Z,98573.47
2023-03-21T09:54:14.046Z,98570.89
2023-03-21T09:56:07.863Z,98574.77
2023-03-21T09:57:41.840Z,98570.25
2023-03-21T09:59:15.817Z,98577.58
2023-03-21T10:00:45.965Z,98580.65
2023-03-21T10:02:22.144Z,98581.35
2023-03-21T10:03:55.955Z,98582.07
2023-03-21T10:05:36.782Z,98584.86
2023-03-21T10:07:22.566Z,98581.57
2023-03-21T10:09:16.541Z,98577.63
2023-03-21T10:10:52.148Z,98578.64
2023-03-21T10:12:32.986Z,98576.17
2023-03-21T10:14:06.842Z,98580.89
2023-03-21T10:15:47.844Z,98580.95
2023-03-21T10:17:28.172Z,98581.81
2023-03-21T10:19:13.348Z,98582.10
2023-03-21T10:20:49.333Z,98581.85
2023-03-21T10:22:22.549Z,98581.55
2023-03-21T10:24:05.987Z,98571.87
2023-03-21T10:25:29.736Z,98586.45
2023-03-21T10:26:54.003Z,98579.08
2023-03-21T10:28:52.717Z,98584.23
2023-03-21T10:30:37.826Z,98586.95
2023-03-21T10:32:18.732Z,98582.85
2023-03-21T10:34:00.434Z,98591.23
2023-03-21T10:35:36.956Z,98589.24
2023-03-21T10:37:19.287Z,98590.73
2023-03-21T10:39:04.688Z,98592.66
2023-03-21T10:40:49.345Z,98590.95
2023-03-21T10:42:25.001Z,98589.23
2023-03-21T10:43:58.554Z,98592.63
2023-03-21T10:45:31.843Z,98593.89
2023-03-21T10:47:17.018Z,98594.76
2023-03-21T10:48:52.572Z,98597.92
2023-03-21T10:50:25.460Z,98597.46
2023-03-21T10:51:52.765Z,98600.23
2023-03-21T10:53:46.964Z,98599.91
2023-03-21T10:55:20.326Z,98601.25
2023-03-21T10:57:16.709Z,98596.05
2023-03-21T10:58:58.543Z,98599.14
2023-03-21T11:00:34.240Z,98598.19
2023-03-21T11:02:19.693Z,98598.56
2023-03-21T11:04:13.421Z,98598.05
2023-03-21T11:05:45.170Z,98593.73
2023-03-21T11:07:30.894Z,98596.00
2023-03-21T11:09:16.072Z,98594.16
2023-03-21T11:10:52.529Z,98592.71
2023-03-21T11:12:46.945Z,98596.92
2023-03-21T11:14:22.626Z,98599.83
2023-03-21T11:16:13.341Z,98596.35
2023-03-21T11:18:07.947Z,98599.50
2023-03-21T11:19:48.669Z,98596.20
2023-03-21T11:21:29.675Z,98597.07
2023-03-21T11:23:15.174Z,98598.61
2023-03-21T11:25:00.435Z,98594.33
2023-03-21T11:26:45.238Z,98596.70
2023-03-21T11:28:11.598Z,98592.98
2023-03-21T11:30:03.228Z,98593.04
2023-03-21T11:31:48.233Z,98586.33
2023-03-21T11:33:24.025Z,98588.98
2023-03-21T11:35:07.421Z,98587.35
2023-03-21T11:36:40.873Z,98586.84
2023-03-21T11:38:17.308Z,98583.33
2023-03-21T11:40:04.452Z,98582.53
2023-03-21T11:41:38.167Z,98576.89
2023-03-21T11:43:11.891Z,98576.81
2023-03-21T11:44:41.245Z,98577.72
2023-03-21T11:46:14.950Z,98570.67
2023-03-21T11:47:39.451Z,98573.74
2023-03-21T11:49:13.858Z,98574.54
2023-03-21T11:50:59.596Z,98577.58
2023-03-21T11:52:32.432Z,98577.00
2023-03-21T11:54:08.752Z,98574.48
2023-03-21T11:55:54.209Z,98572.62
2023-03-21T11:57:18.739Z,98581.02
2023-03-21T11:58:40.357Z,98581.27
2023-03-21T12:00:14.159Z,98581.23
2023-03-21T12:01:59.518Z,98583.84
2023-03-21T12:03:47.280Z,98579.42
2023-03-21T12:05:24.924Z,98583.95
2023-03-21T12:06:58.500Z,98580.73
2023-03-21T12:08:34.786Z,98582.98
2023-03-21T12:10:04.954Z,98578.45
2023-03-21T12:11:58.976Z,98582.80
2023-03-21T12:13:32.153Z,98580.94
2023-03-21T12:15:01.388Z,98580.93
2023-03-21T12:16:34.723Z,98580.86
2023-03-21T12:18:19.702Z,98580.19
2023-03-21T12:19:53.044Z,98572.70
2023-03-21T12:21:26.477Z,98573.30
2023-03-21T12:22:48.380Z,98574.54
2023-03-21T12:24:22.247Z,98573.85
2023-03-21T12:25:56.202Z,98567.45
2023-03-21T12:27:21.936Z,98572.22
2023-03-21T12:28:55.643Z,98569.20
2023-03-21T12:30:30.834Z,98570.64
2023-03-21T12:32:08.037Z,98562.08
2023-03-21T12:33:48.951Z,98567.15
2023-03-21T12:35:33.109Z,98564.73
2023-03-21T12:37:04.339Z,98551.14
2023-03-21T12:38:28.129Z,98565.29
2023-03-21T12:40:02.548Z,98565.02
2023-03-21T12:41:35.592Z,98553.03
2023-03-21T12:43:06.709Z,98561.82
2023-03-21T12:44:30.334Z,98558.93
2023-03-21T12:45:57.262Z,98556.61
2023-03-21T12:47:19.109Z,98560.90
2023-03-21T12:48:59.191Z,98557.64
2023-03-21T12:50:36.777Z,98548.27
2023-03-21T12:52:13.189Z,98547.15
2023-03-21T12:53:44.541Z,98555.61
2023-03-21T12:55:20.728Z,98554.36
2023-03-21T12:57:11.100Z,98549.68
2023-03-21T12:58:52.376Z,98547.37
2023-03-21T13:00:37.295Z,98552.38
2023-03-21T13:02:10.711Z,98551.13
2023-03-21T13:03:39.922Z,98555.02
2023-03-21T13:05:16.874Z,98548.12
2023-03-21T13:07:08.995Z,98547.33
2023-03-21T13:08:44.766Z,98552.14
2023-03-21T13:10:20.780Z,98548.05
2023-03-21T13:11:54.373Z,98549.98
2023-03-21T13:13:29.919Z,98550.31
2023-03-21T13:15:21.705Z,98548.59
2023-03-21T13:17:09.520Z,98549.40
2023-03-21T13:18:38.427Z,98548.88
2023-03-21T13:20:14.975Z,98548.29
2023-03-21T13:21:39.282Z,98551.98
2023-03-21T13:23:25.262Z,98548.63
2023-03-21T13:24:59.891Z,98541.19
2023-03-21T13:26:33.647Z,98549.05
2023-03-21T13:28:07.172Z,98548.00
2023-03-21T13:30:00.235Z,98551.40
2023-03-21T13:31:21.973Z,98543.26
2023-03-21T13:32:46.441Z,98548.65
2023-03-21T13:34:21.903Z,98549.59
2023-03-21T13:36:08.201Z,98541.64
2023-03-21T13:37:30.680Z,98547.02
2023-03-21T13:39:06.971Z,98531.64
2023-03-21T13:40:40.609Z,98542.23
2023-03-21T13:42:02.910Z,98543.83
2023-03-21T13:43:27.312Z,98543.75
2023-03-21T13:45:12.954Z,98540.16
2023-03-21T13:46:54.223Z,98537.98
2023-03-21T13:48:21.042Z,98540.99
2023-03-21T13:49:52.775Z,98537.82
2023-03-21T13:51:21.702Z,98536.67
2023-03-21T13:52:55.846Z,98541.97
2023-03-21T13:54:31.205Z,98537.63
2023-03-21T13:55:53.200Z,98538.04
2023-03-21T13:57:24.878Z,98540.71
2023-03-21T13:58:46.977Z,98532.67
2023-03-21T14:00:20.515Z,98535.55
2023-03-21T14:01:45.210Z,98534.46
2023-03-21T14:03:19.538Z,98531.34
2023-03-21T14:05:04.923Z,98527.64
2023-03-21T14:06:39.032Z,98523.59
2023-03-21T14:08:12.708Z,98524.89
2023-03-21T14:09:38.983Z,98521.90
2023-03-21T14:11:14.998Z,98519.90
2023-03-21T14:12:48.710Z,98523.13
2023-03-21T14:14:12.766Z,98525.79
2023-03-21T14:15:55.168Z,98523.58
2023-03-21T14:17:19.860Z,98528.16
2023-03-21T14:18:56.252Z,98524.76
2023-03-21T14:20:20.012Z,98530.27
2023-03-21T14:21:53.550Z,98530.91
2023-03-21T14:23:17.405Z,98526.70
2023-03-21T14:24:50.937Z,98522.84
2023-03-21T14:26:15.329Z,98518.09
2023-03-21T14:27:37.790Z,98517.84
2023-03-21T14:29:22.907Z,98512.96
2023-03-21T14:30:49.858Z,98510.13
2023-03-21T14:32:14.406Z,98512.23
2023-03-21T14:33:43.689Z,98514.23
2023-03-21T14:35:08.323Z,98500.05
2023-03-21T14:36:48.625Z,98507.46
2023-03-21T14:38:29.449Z,98507.73
2023-03-21T14:39:53.747Z,98511.33
2023-03-21T14:41:17.529Z,98511.77
2023-03-21T14:43:05.997Z,98508.88
2023-03-21T14:44:28.096Z,98507.70
2023-03-21T14:46:01.701Z,98507.52
2023-03-21T14:47:37.323Z,98508.21
2023-03-21T14:49:22.828Z,98510.66
2023-03-21T14:51:18.041Z,98502.92
2023-03-21T14:52:44.032Z,98507.98
2023-03-21T14:54:17.489Z,98506.25
2023-03-21T14:55:49.124Z,98511.39
2023-03-21T14:57:20.254Z,98508.38
2023-03-21T14:58:46.975Z,98504.98
2023-03-21T15:00:16.459Z,98499.98
2023-03-21T15:01:48.135Z,98502.65
2023-03-21T15:03:23.484Z,98503.33
2023-03-21T15:05:04.625Z,98492.92
2023-03-21T15:06:28.189Z,98491.10
2023-03-21T15:07:53.598Z,98498.28
2023-03-21T15:09:17.666Z,98502.63
2023-03-21T15:10:39.130Z,98498.25
2023-03-21T15:12:10.568Z,98497.90
2023-03-21T15:13:55.714Z,98502.89
2023-03-21T15:15:31.144Z,98501.54
2023-03-21T15:17:07.441Z,98499.34
2023-03-21T15:18:33.297Z,98504.66
2023-03-21T15:20:10.143Z,98499.02
2023-03-21T15:21:33.966Z,98497.56
2023-03-21T15:23:19.383Z,98500.73
2023-03-21T15:24:56.063Z,98501.17
2023-03-21T15:26:49.972Z,98502.98
2023-03-21T15:28:23.018Z,98503.64
2023-03-21T15:29:49.869Z,98495.70
2023-03-21T15:31:14.193Z,98501.71
2023-03-21T15:33:09.001Z,98500.27
2023-03-21T15:35:03.972Z,98498.90
2023-03-21T15:36:35.501Z,98499.46
2023-03-21T15:38:20.914Z,98495.89
2023-03-21T15:39:54.471Z,98497.20
2023-03-21T15:41:16.488Z,98496.59
2023-03-21T15:43:04.020Z,98494.61
2023-03-21T15:44:37.589Z,98491.61
2023-03-21T15:45:59.927Z,98490.41
2023-03-21T15:47:28.787Z,98493.51
2023-03-21T15:49:10.043Z,98488.19
2023-03-21T15:50:41.345Z,98489.80
2023-03-21T15:52:26.910Z,98490.98
2023-03-21T15:53:49.120Z,98489.59
2023-03-21T15:55:11.098Z,98487.81
2023-03-21T15:56:34.726Z,98488.09
2023-03-21T15:57:59.919Z,98484.73
2023-03-21T15:59:31.546Z,98483.02
2023-03-21T16:00:55.450Z,98481.12
2023-03-21T16:02:24.984Z,98473.49
2023-03-21T16:03:47.917Z,98480.77
2023-03-21T16:05:32.867Z,98481.14
2023-03-21T16:07:06.708Z,98480.75
2023-03-21T16:08:28.643Z,98475.14
2023-03-21T16:10:02.238Z,98477.80
2023-03-21T16:11:37.630Z,98477.81
2023-03-21T16:13:22.766Z,98476.08
2023-03-21T16:14:56.560Z,98474.66
2023-03-21T16:16:22.735Z,98477.96
2023-03-21T16:17:54.456Z,98481.41
2023-03-21T16:19:29.968Z,98479.80
2023-03-21T16:20:59.339Z,98484.98
2023-03-21T16:22:28.413Z,98488.92
2023-03-21T16:24:13.890Z,98485.88
2023-03-21T16:25:59.673Z,98489.29
2023-03-21T16:27:30.720Z,98489.11
2023-03-21T16:29:07.054Z,98486.27
2023-03-21T16:30:38.498Z,98491.42
2023-03-21T16:32:23.926Z,98494.23
2023-03-21T16:34:11.582Z,98495.49
2023-03-21T16:35:57.031Z,98495.02
2023-03-21T16:37:41.851Z,98498.48
2023-03-21T16:39:15.516Z,98498.08
2023-03-21T16:41:00.809Z,98496.52
2023-03-21T16:42:24.521Z,98499.14
2023-03-21T16:43:46.290Z,98503.76
2023-03-21T16:45:31.232Z,98501.61
2023-03-21T16:47:16.476Z,98499.54
2023-03-21T16:48:52.661Z,98504.14
2023-03-21T16:50:24.283Z,98504.42
2023-03-21T16:51:58.086Z,98507.24
2023-03-21T16:53:31.370Z,98512.63
2023-03-21T16:55:03.219Z,98505.95
2023-03-21T16:56:32.733Z,98511.99
2023-03-21T16:57:57.570Z,98514.39
2023-03-21T16:59:30.862Z,98513.25
2023-03-21T17:01:07.168Z,98511.69
2023-03-21T17:02:31.370Z,98516.27
2023-03-21T17:04:03.155Z,98514.57
2023-03-21T17:05:38.971Z,98520.87
2023-03-21T17:07:20.151Z,98523.66
2023-03-21T17:08:44.402Z,98525.18
2023-03-21T17:10:17.901Z,98526.23
2023-03-21T17:11:55.295Z,98534.06
2023-03-21T17:13:24.838Z,98527.84
2023-03-21T17:14:58.987Z,98531.45
2023-03-21T17:16:30.079Z,98532.73
2023-03-21T17:18:12.063Z,98528.52
2023-03-21T17:19:41.390Z,98531.83
2023-03-21T17:21:10.814Z,98529.48
2023-03-21T17:22:44.501Z,98531.51
2023-03-21T17:24:17.585Z,98531.09
2023-03-21T17:25:46.808Z,98526.84
2023-03-21T17:27:29.212Z,98527.63
2023-03-21T17:29:03.149Z,98528.70
2023-03-21T17:30:39.869Z,98530.88
2023-03-21T17:32:14.026Z,98532.73
2023-03-21T17:33:50.128Z,98534.41
2023-03-21T17:35:23.746Z,98522.39
2023-03-21T17:36:49.505Z,98534.17
2023-03-21T17:38:25.115Z,98536.10
2023-03-21T17:39:47.835Z,98539.42
2023-03-21T17:41:32.898Z,98543.11
2023-03-21T17:42:55.334Z,98543.66
2023-03-21T17:44:28.425Z,98544.23
2023-03-21T17:46:02.920Z,98542.10
2023-03-21T17:47:32.857Z,98543.99
2023-03-21T17:49:18.065Z,98541.00
2023-03-21T17:50:49.553Z,98547.34
2023-03-21T17:52:21.375Z,98544.05
2023-03-21T17:54:11.375Z,98538.60
2023-03-21T17:55:48.017Z,98548.04
2023-03-21T17:57:10.399Z,98548.35
2023-03-21T17:58:46.701Z,98551.57
2023-03-21T18:00:12.466Z,98552.61
2023-03-21T18:01:35.314Z,98550.01
2023-03-21T18:03:08.288Z,98552.59
2023-03-21T18:04:41.578Z,98552.54
2023-03-21T18:06:15.601Z,98553.88
2023-03-21T18:09:43.879Z,98561.01
2023-03-21T18:11:24.753Z,98563.19
2023-03-21T18:12:53.042Z,98560.38
2023-03-21T18:14:30.632Z,98563.79
2023-03-21T18:16:10.464Z,98567.11
2023-03-21T18:17:46.703Z,98565.30
2023-03-21T18:19:16.033Z,98565.41
2023-03-21T18:21:11.000Z,98568.80
2023-03-21T18:22:44.359Z,98567.41
2023-03-21T18:24:08.748Z,98567.97
2023-03-21T18:25:50.528Z,98557.84
2023-03-21T18:27:14.420Z,98561.19
2023-03-21T18:28:43.667Z,98561.84
2023-03-21T18:30:44.357Z,98563.57
2023-03-21T18:32:02.538Z,98564.27
2023-03-21T18:33:40.459Z,98564.45
2023-03-21T18:35:14.614Z,98566.79
2023-03-21T18:36:39.364Z,98569.33
2023-03-21T18:38:14.581Z,98558.21
2023-03-21T18:39:48.462Z,98560.11
2023-03-21T18:41:24.818Z,98572.70
2023-03-21T18:43:45.897Z,98569.95
2023-03-21T18:44:47.020Z,98570.13
2023-03-21T18:46:21.457Z,98573.59
2023-03-21T18:47:44.212Z,98574.41
2023-03-21T18:51:00.935Z,98564.95
2023-03-21T18:52:26.311Z,98572.52
2023-03-21T18:53:48.705Z,98575.94
2023-03-21T18:55:32.751Z,98572.39
2023-03-21T18:59:25.684Z,98560.61
2023-03-21T19:00:59.696Z,98574.73
2023-03-21T19:02:29.109Z,98575.27
2023-03-21T19:04:17.835Z,98570.98
2023-03-21T19:06:05.149Z,98576.54
2023-03-21T19:07:29.927Z,98581.14
2023-03-21T19:08:54.686Z,98578.77
2023-03-21T19:10:21.839Z,98575.47
2023-03-21T19:12:15.651Z,98560.88